East Charleston, Vermont
Current Conditions -  °F | °C
As of 4:55 AM on Sunday 21 Dec 2014 (Local Time) from KEFK Reporting Station
Scattered Clouds Scattered Clouds  
Wind Chill:   Ceiling: Unl
Heat Index:   Visibility: 7mi
Dew Point: -1°   Wind: 0mph
Humidity: 86%   Direction: NA
Pressure: 30.3"   Gusts: NA
Location:  44.84°N, 71.99°W
Report Text: KEFK 210955Z AUTO 00000KT 7SM SCT001 M16/M18 A3030 RMK AO2 T11631181
Loading
Personal Weather Stations






























Interactive Weather Map New forecast layout! Learn more

10-Day Weather Forecast

Advertisements
Track Severe Weather on mobile